sensor_id;sensor_type;location;lat;lon;timestamp;P1;durP1;ratioP1;P2;durP2;ratioP2
36799;SDS011;22752;51.960;5.886;2023-02-25T00:02:01;22.17;;;3.57;;
36799;SDS011;22752;51.960;5.886;2023-02-25T00:04:27;18.60;;;2.90;;
36799;SDS011;22752;51.960;5.886;2023-02-25T00:06:52;16.13;;;2.77;;
36799;SDS011;22752;51.960;5.886;2023-02-25T00:09:19;25.73;;;3.37;;
36799;SDS011;22752;51.960;5.886;2023-02-25T00:11:45;20.20;;;3.00;;
36799;SDS011;22752;51.960;5.886;2023-02-25T00:14:10;17.50;;;2.73;;
36799;SDS011;22752;51.960;5.886;2023-02-25T00:16:36;21.20;;;3.43;;
36799;SDS011;22752;51.960;5.886;2023-02-25T00:19:02;17.80;;;2.87;;
36799;SDS011;22752;51.960;5.886;2023-02-25T00:21:28;22.63;;;3.37;;
36799;SDS011;22752;51.960;5.886;2023-02-25T00:23:53;20.67;;;3.63;;
36799;SDS011;22752;51.960;5.886;2023-02-25T00:26:20;26.13;;;3.67;;
36799;SDS011;22752;51.960;5.886;2023-02-25T00:28:46;23.10;;;3.67;;
36799;SDS011;22752;51.960;5.886;2023-02-25T00:31:16;21.67;;;3.00;;
36799;SDS011;22752;51.960;5.886;2023-02-25T00:33:44;22.83;;;4.17;;
36799;SDS011;22752;51.960;5.886;2023-02-25T00:36:11;14.37;;;3.17;;
36799;SDS011;22752;51.960;5.886;2023-02-25T00:38:48;24.17;;;4.10;;
36799;SDS011;22752;51.960;5.886;2023-02-25T00:41:16;23.03;;;3.13;;
36799;SDS011;22752;51.960;5.886;2023-02-25T00:43:49;20.17;;;3.33;;
36799;SDS011;22752;51.960;5.886;2023-02-25T00:46:17;19.03;;;3.60;;
36799;SDS011;22752;51.960;5.886;2023-02-25T00:48:43;19.27;;;3.60;;
36799;SDS011;22752;51.960;5.886;2023-02-25T00:51:10;27.67;;;3.13;;
36799;SDS011;22752;51.960;5.886;2023-02-25T00:53:40;22.50;;;3.87;;
36799;SDS011;22752;51.960;5.886;2023-02-25T00:56:07;21.77;;;3.73;;
36799;SDS011;22752;51.960;5.886;2023-02-25T00:58:35;26.37;;;3.70;;
36799;SDS011;22752;51.960;5.886;2023-02-25T01:01:02;20.83;;;3.80;;
36799;SDS011;22752;51.960;5.886;2023-02-25T01:03:30;20.30;;;3.13;;
36799;SDS011;22752;51.960;5.886;2023-02-25T01:05:56;22.30;;;3.90;;
36799;SDS011;22752;51.960;5.886;2023-02-25T01:08:21;22.57;;;4.07;;
36799;SDS011;22752;51.960;5.886;2023-02-25T01:10:47;26.97;;;4.97;;
36799;SDS011;22752;51.960;5.886;2023-02-25T01:13:14;25.07;;;3.87;;
36799;SDS011;22752;51.960;5.886;2023-02-25T01:15:40;25.60;;;3.83;;
36799;SDS011;22752;51.960;5.886;2023-02-25T01:18:06;27.43;;;3.90;;
36799;SDS011;22752;51.960;5.886;2023-02-25T01:20:32;21.83;;;3.47;;
36799;SDS011;22752;51.960;5.886;2023-02-25T01:23:03;23.83;;;4.20;;
36799;SDS011;22752;51.960;5.886;2023-02-25T01:25:28;26.67;;;4.40;;
36799;SDS011;22752;51.960;5.886;2023-02-25T01:27:54;26.23;;;3.63;;
36799;SDS011;22752;51.960;5.886;2023-02-25T01:30:20;17.43;;;3.20;;
36799;SDS011;22752;51.960;5.886;2023-02-25T01:32:47;23.40;;;3.57;;
36799;SDS011;22752;51.960;5.886;2023-02-25T01:35:12;16.60;;;3.00;;
36799;SDS011;22752;51.960;5.886;2023-02-25T01:37:38;21.67;;;3.10;;
36799;SDS011;22752;51.960;5.886;2023-02-25T01:40:04;20.80;;;3.33;;
36799;SDS011;22752;51.960;5.886;2023-02-25T01:42:30;20.17;;;3.20;;
36799;SDS011;22752;51.960;5.886;2023-02-25T01:47:56;24.20;;;3.30;;
36799;SDS011;22752;51.960;5.886;2023-02-25T01:50:25;15.17;;;2.97;;
36799;SDS011;22752;51.960;5.886;2023-02-25T01:52:55;22.03;;;2.80;;
36799;SDS011;22752;51.960;5.886;2023-02-25T01:55:25;17.80;;;2.80;;
36799;SDS011;22752;51.960;5.886;2023-02-25T01:57:51;18.07;;;2.77;;
36799;SDS011;22752;51.960;5.886;2023-02-25T02:00:17;26.10;;;3.43;;
36799;SDS011;22752;51.960;5.886;2023-02-25T02:02:44;15.57;;;2.37;;
36799;SDS011;22752;51.960;5.886;2023-02-25T02:05:12;19.80;;;2.47;;
36799;SDS011;22752;51.960;5.886;2023-02-25T02:07:39;19.30;;;2.93;;
36799;SDS011;22752;51.960;5.886;2023-02-25T02:10:05;15.07;;;2.67;;
36799;SDS011;22752;51.960;5.886;2023-02-25T02:12:32;19.43;;;2.70;;
36799;SDS011;22752;51.960;5.886;2023-02-25T02:15:05;27.00;;;3.03;;
36799;SDS011;22752;51.960;5.886;2023-02-25T02:20:18;17.73;;;2.13;;
36799;SDS011;22752;51.960;5.886;2023-02-25T02:28:24;16.13;;;2.70;;
36799;SDS011;22752;51.960;5.886;2023-02-25T02:31:30;14.37;;;2.73;;
36799;SDS011;22752;51.960;5.886;2023-02-25T02:52:28;22.03;;;3.07;;
36799;SDS011;22752;51.960;5.886;2023-02-25T02:54:58;13.33;;;2.60;;
36799;SDS011;22752;51.960;5.886;2023-02-25T02:57:29;15.40;;;2.58;;
36799;SDS011;22752;51.960;5.886;2023-02-25T03:00:05;25.43;;;3.63;;
36799;SDS011;22752;51.960;5.886;2023-02-25T03:02:42;24.50;;;3.07;;
36799;SDS011;22752;51.960;5.886;2023-02-25T03:05:14;22.38;;;2.95;;
36799;SDS011;22752;51.960;5.886;2023-02-25T03:07:43;21.03;;;3.60;;
36799;SDS011;22752;51.960;5.886;2023-02-25T03:10:15;22.50;;;3.30;;
36799;SDS011;22752;51.960;5.886;2023-02-25T03:12:45;21.10;;;3.13;;
36799;SDS011;22752;51.960;5.886;2023-02-25T03:15:11;18.00;;;3.43;;
36799;SDS011;22752;51.960;5.886;2023-02-25T03:17:39;28.00;;;3.63;;
36799;SDS011;22752;51.960;5.886;2023-02-25T03:20:27;22.00;;;4.13;;
36799;SDS011;22752;51.960;5.886;2023-02-25T03:23:00;16.27;;;3.00;;
36799;SDS011;22752;51.960;5.886;2023-02-25T03:25:31;18.93;;;2.97;;
36799;SDS011;22752;51.960;5.886;2023-02-25T03:28:03;22.43;;;3.47;;
36799;SDS011;22752;51.960;5.886;2023-02-25T03:30:49;28.37;;;3.30;;
36799;SDS011;22752;51.960;5.886;2023-02-25T03:36:09;21.30;;;3.43;;
36799;SDS011;22752;51.960;5.886;2023-02-25T03:38:41;27.90;;;3.83;;
36799;SDS011;22752;51.960;5.886;2023-02-25T03:41:10;15.77;;;2.47;;
36799;SDS011;22752;51.960;5.886;2023-02-25T03:43:43;19.80;;;2.90;;
36799;SDS011;22752;51.960;5.886;2023-02-25T03:46:12;23.17;;;3.47;;
36799;SDS011;22752;51.960;5.886;2023-02-25T03:48:39;25.00;;;3.43;;
36799;SDS011;22752;51.960;5.886;2023-02-25T03:51:06;27.10;;;4.20;;
36799;SDS011;22752;51.960;5.886;2023-02-25T03:53:33;20.10;;;3.57;;
36799;SDS011;22752;51.960;5.886;2023-02-25T03:56:01;21.90;;;3.87;;
36799;SDS011;22752;51.960;5.886;2023-02-25T03:58:31;29.67;;;4.10;;
36799;SDS011;22752;51.960;5.886;2023-02-25T04:01:00;26.17;;;4.13;;
36799;SDS011;22752;51.960;5.886;2023-02-25T04:03:30;20.63;;;3.30;;
36799;SDS011;22752;51.960;5.886;2023-02-25T04:05:56;21.10;;;3.40;;
36799;SDS011;22752;51.960;5.886;2023-02-25T04:08:21;25.63;;;3.53;;
36799;SDS011;22752;51.960;5.886;2023-02-25T04:10:47;26.77;;;3.93;;
36799;SDS011;22752;51.960;5.886;2023-02-25T04:13:13;19.03;;;3.03;;
36799;SDS011;22752;51.960;5.886;2023-02-25T04:15:40;22.77;;;3.60;;
36799;SDS011;22752;51.960;5.886;2023-02-25T04:18:06;21.97;;;4.27;;
36799;SDS011;22752;51.960;5.886;2023-02-25T04:20:33;24.97;;;3.30;;
36799;SDS011;22752;51.960;5.886;2023-02-25T04:22:59;29.80;;;3.30;;
36799;SDS011;22752;51.960;5.886;2023-02-25T04:25:25;21.23;;;3.03;;
36799;SDS011;22752;51.960;5.886;2023-02-25T04:27:51;18.63;;;3.03;;
36799;SDS011;22752;51.960;5.886;2023-02-25T04:30:17;21.37;;;3.27;;
36799;SDS011;22752;51.960;5.886;2023-02-25T04:32:43;20.37;;;2.90;;
36799;SDS011;22752;51.960;5.886;2023-02-25T04:35:08;18.43;;;2.77;;
36799;SDS011;22752;51.960;5.886;2023-02-25T04:37:41;15.73;;;2.70;;
36799;SDS011;22752;51.960;5.886;2023-02-25T04:40:17;17.73;;;2.93;;
36799;SDS011;22752;51.960;5.886;2023-02-25T04:42:44;20.67;;;3.03;;
36799;SDS011;22752;51.960;5.886;2023-02-25T04:45:10;18.33;;;3.53;;
36799;SDS011;22752;51.960;5.886;2023-02-25T04:47:37;19.20;;;3.00;;
36799;SDS011;22752;51.960;5.886;2023-02-25T04:50:03;15.43;;;3.10;;
36799;SDS011;22752;51.960;5.886;2023-02-25T04:52:30;19.47;;;2.80;;
36799;SDS011;22752;51.960;5.886;2023-02-25T04:54:55;22.10;;;4.20;;
36799;SDS011;22752;51.960;5.886;2023-02-25T04:57:21;14.97;;;2.70;;
36799;SDS011;22752;51.960;5.886;2023-02-25T04:59:46;21.73;;;3.23;;
36799;SDS011;22752;51.960;5.886;2023-02-25T05:02:12;15.00;;;2.77;;
36799;SDS011;22752;51.960;5.886;2023-02-25T05:04:38;15.63;;;2.47;;
36799;SDS011;22752;51.960;5.886;2023-02-25T05:07:04;15.17;;;2.57;;
36799;SDS011;22752;51.960;5.886;2023-02-25T05:09:30;21.67;;;3.10;;
36799;SDS011;22752;51.960;5.886;2023-02-25T05:11:56;18.77;;;3.10;;
36799;SDS011;22752;51.960;5.886;2023-02-25T05:14:22;25.13;;;4.13;;
36799;SDS011;22752;51.960;5.886;2023-02-25T05:16:48;17.00;;;2.70;;
36799;SDS011;22752;51.960;5.886;2023-02-25T05:19:15;20.17;;;3.07;;
36799;SDS011;22752;51.960;5.886;2023-02-25T05:21:42;28.07;;;3.30;;
36799;SDS011;22752;51.960;5.886;2023-02-25T05:24:07;21.33;;;3.63;;
36799;SDS011;22752;51.960;5.886;2023-02-25T05:26:33;15.57;;;3.27;;
36799;SDS011;22752;51.960;5.886;2023-02-25T05:28:59;25.33;;;3.20;;
36799;SDS011;22752;51.960;5.886;2023-02-25T05:31:25;24.27;;;3.10;;
36799;SDS011;22752;51.960;5.886;2023-02-25T05:33:50;29.10;;;3.30;;
36799;SDS011;22752;51.960;5.886;2023-02-25T05:36:17;26.90;;;3.87;;
36799;SDS011;22752;51.960;5.886;2023-02-25T05:38:43;25.00;;;3.40;;
36799;SDS011;22752;51.960;5.886;2023-02-25T05:41:10;30.07;;;4.17;;
36799;SDS011;22752;51.960;5.886;2023-02-25T05:43:37;22.77;;;3.67;;
36799;SDS011;22752;51.960;5.886;2023-02-25T05:46:03;23.50;;;3.63;;
36799;SDS011;22752;51.960;5.886;2023-02-25T05:48:35;20.60;;;3.43;;
36799;SDS011;22752;51.960;5.886;2023-02-25T05:51:05;26.77;;;4.60;;
36799;SDS011;22752;51.960;5.886;2023-02-25T05:53:32;34.73;;;4.60;;
36799;SDS011;22752;51.960;5.886;2023-02-25T05:55:58;18.17;;;3.00;;
36799;SDS011;22752;51.960;5.886;2023-02-25T05:58:27;19.10;;;3.23;;
36799;SDS011;22752;51.960;5.886;2023-02-25T06:00:52;17.83;;;3.33;;
36799;SDS011;22752;51.960;5.886;2023-02-25T06:03:18;18.23;;;3.17;;
36799;SDS011;22752;51.960;5.886;2023-02-25T06:05:43;18.53;;;2.67;;
36799;SDS011;22752;51.960;5.886;2023-02-25T06:08:10;18.97;;;3.20;;
36799;SDS011;22752;51.960;5.886;2023-02-25T06:10:37;20.03;;;2.67;;
36799;SDS011;22752;51.960;5.886;2023-02-25T06:13:04;17.03;;;2.67;;
36799;SDS011;22752;51.960;5.886;2023-02-25T06:15:30;21.30;;;3.03;;
36799;SDS011;22752;51.960;5.886;2023-02-25T06:17:56;23.10;;;2.70;;
36799;SDS011;22752;51.960;5.886;2023-02-25T06:20:22;15.00;;;3.10;;
36799;SDS011;22752;51.960;5.886;2023-02-25T06:22:49;18.60;;;2.73;;
36799;SDS011;22752;51.960;5.886;2023-02-25T06:25:15;19.13;;;3.03;;
36799;SDS011;22752;51.960;5.886;2023-02-25T06:27:41;12.67;;;2.53;;
36799;SDS011;22752;51.960;5.886;2023-02-25T06:30:07;16.27;;;2.77;;
36799;SDS011;22752;51.960;5.886;2023-02-25T06:32:34;16.67;;;2.87;;
36799;SDS011;22752;51.960;5.886;2023-02-25T06:35:00;21.70;;;3.13;;
36799;SDS011;22752;51.960;5.886;2023-02-25T06:37:25;15.13;;;2.47;;
36799;SDS011;22752;51.960;5.886;2023-02-25T06:39:51;17.33;;;2.70;;
36799;SDS011;22752;51.960;5.886;2023-02-25T06:42:18;17.50;;;2.97;;
36799;SDS011;22752;51.960;5.886;2023-02-25T06:44:43;19.67;;;3.57;;
36799;SDS011;22752;51.960;5.886;2023-02-25T06:47:09;11.10;;;2.40;;
36799;SDS011;22752;51.960;5.886;2023-02-25T06:49:35;18.33;;;2.10;;
36799;SDS011;22752;51.960;5.886;2023-02-25T06:52:00;17.20;;;2.67;;
36799;SDS011;22752;51.960;5.886;2023-02-25T06:54:26;13.43;;;2.83;;
36799;SDS011;22752;51.960;5.886;2023-02-25T06:56:52;18.93;;;3.10;;
36799;SDS011;22752;51.960;5.886;2023-02-25T06:59:18;20.60;;;3.27;;
36799;SDS011;22752;51.960;5.886;2023-02-25T07:01:44;21.63;;;3.97;;
36799;SDS011;22752;51.960;5.886;2023-02-25T07:04:14;15.57;;;2.93;;
36799;SDS011;22752;51.960;5.886;2023-02-25T07:06:41;22.07;;;3.37;;
36799;SDS011;22752;51.960;5.886;2023-02-25T07:09:07;21.03;;;2.50;;
36799;SDS011;22752;51.960;5.886;2023-02-25T07:11:33;14.90;;;2.83;;
36799;SDS011;22752;51.960;5.886;2023-02-25T07:14:01;24.37;;;3.77;;
36799;SDS011;22752;51.960;5.886;2023-02-25T07:16:28;22.73;;;3.67;;
36799;SDS011;22752;51.960;5.886;2023-02-25T07:18:58;18.90;;;3.23;;
36799;SDS011;22752;51.960;5.886;2023-02-25T07:21:26;14.87;;;3.00;;
36799;SDS011;22752;51.960;5.886;2023-02-25T07:23:53;17.33;;;3.40;;
36799;SDS011;22752;51.960;5.886;2023-02-25T07:26:19;24.10;;;3.27;;
36799;SDS011;22752;51.960;5.886;2023-02-25T07:28:45;23.13;;;3.27;;
36799;SDS011;22752;51.960;5.886;2023-02-25T07:31:14;15.43;;;2.80;;
36799;SDS011;22752;51.960;5.886;2023-02-25T07:33:42;16.50;;;3.23;;
36799;SDS011;22752;51.960;5.886;2023-02-25T07:36:09;21.07;;;3.60;;
36799;SDS011;22752;51.960;5.886;2023-02-25T07:38:36;23.03;;;3.33;;
36799;SDS011;22752;51.960;5.886;2023-02-25T07:41:06;24.17;;;3.40;;
36799;SDS011;22752;51.960;5.886;2023-02-25T07:43:37;26.67;;;4.53;;
36799;SDS011;22752;51.960;5.886;2023-02-25T07:46:04;23.50;;;4.13;;
36799;SDS011;22752;51.960;5.886;2023-02-25T07:48:30;23.13;;;3.27;;
36799;SDS011;22752;51.960;5.886;2023-02-25T07:51:02;17.77;;;3.07;;
36799;SDS011;22752;51.960;5.886;2023-02-25T07:53:40;18.87;;;3.50;;
36799;SDS011;22752;51.960;5.886;2023-02-25T07:56:06;15.67;;;2.60;;
36799;SDS011;22752;51.960;5.886;2023-02-25T07:58:33;20.43;;;3.63;;
36799;SDS011;22752;51.960;5.886;2023-02-25T08:00:59;19.00;;;3.07;;
36799;SDS011;22752;51.960;5.886;2023-02-25T08:03:27;22.17;;;3.73;;
36799;SDS011;22752;51.960;5.886;2023-02-25T08:05:53;16.53;;;3.30;;
36799;SDS011;22752;51.960;5.886;2023-02-25T08:08:19;22.47;;;3.53;;
36799;SDS011;22752;51.960;5.886;2023-02-25T08:10:46;22.40;;;3.10;;
36799;SDS011;22752;51.960;5.886;2023-02-25T08:13:11;22.00;;;3.00;;
36799;SDS011;22752;51.960;5.886;2023-02-25T08:15:41;13.70;;;2.90;;
36799;SDS011;22752;51.960;5.886;2023-02-25T08:18:08;23.03;;;2.93;;
36799;SDS011;22752;51.960;5.886;2023-02-25T08:20:34;19.77;;;3.37;;
36799;SDS011;22752;51.960;5.886;2023-02-25T08:23:00;17.97;;;3.77;;
36799;SDS011;22752;51.960;5.886;2023-02-25T08:25:26;19.70;;;3.20;;
36799;SDS011;22752;51.960;5.886;2023-02-25T08:27:51;20.57;;;3.20;;
36799;SDS011;22752;51.960;5.886;2023-02-25T08:30:17;22.90;;;3.43;;
36799;SDS011;22752;51.960;5.886;2023-02-25T08:32:44;19.73;;;2.73;;
36799;SDS011;22752;51.960;5.886;2023-02-25T08:35:11;22.03;;;3.33;;
36799;SDS011;22752;51.960;5.886;2023-02-25T08:37:37;19.53;;;3.13;;
36799;SDS011;22752;51.960;5.886;2023-02-25T08:40:02;15.60;;;2.43;;
36799;SDS011;22752;51.960;5.886;2023-02-25T08:42:34;21.63;;;3.07;;
36799;SDS011;22752;51.960;5.886;2023-02-25T08:45:01;14.30;;;2.40;;
36799;SDS011;22752;51.960;5.886;2023-02-25T08:47:26;14.73;;;2.30;;
36799;SDS011;22752;51.960;5.886;2023-02-25T08:49:52;22.03;;;2.87;;
36799;SDS011;22752;51.960;5.886;2023-02-25T08:52:18;15.50;;;2.27;;
36799;SDS011;22752;51.960;5.886;2023-02-25T08:54:44;13.30;;;1.93;;
36799;SDS011;22752;51.960;5.886;2023-02-25T08:57:09;11.37;;;1.53;;
36799;SDS011;22752;51.960;5.886;2023-02-25T08:59:35;9.67;;;2.00;;
36799;SDS011;22752;51.960;5.886;2023-02-25T09:02:02;14.17;;;2.40;;
36799;SDS011;22752;51.960;5.886;2023-02-25T09:04:30;12.23;;;2.10;;
36799;SDS011;22752;51.960;5.886;2023-02-25T09:06:57;12.33;;;2.33;;
36799;SDS011;22752;51.960;5.886;2023-02-25T09:09:24;5.93;;;1.47;;
36799;SDS011;22752;51.960;5.886;2023-02-25T09:11:50;11.23;;;1.80;;
36799;SDS011;22752;51.960;5.886;2023-02-25T09:14:16;5.60;;;0.93;;
36799;SDS011;22752;51.960;5.886;2023-02-25T09:16:42;6.67;;;1.33;;
36799;SDS011;22752;51.960;5.886;2023-02-25T09:19:08;8.83;;;1.70;;
36799;SDS011;22752;51.960;5.886;2023-02-25T09:21:36;7.87;;;1.10;;
36799;SDS011;22752;51.960;5.886;2023-02-25T09:24:05;8.07;;;1.50;;
36799;SDS011;22752;51.960;5.886;2023-02-25T09:26:31;8.30;;;2.03;;
36799;SDS011;22752;51.960;5.886;2023-02-25T09:29:01;6.60;;;1.40;;
36799;SDS011;22752;51.960;5.886;2023-02-25T09:31:28;14.07;;;1.70;;
36799;SDS011;22752;51.960;5.886;2023-02-25T09:33:53;7.10;;;1.87;;
36799;SDS011;22752;51.960;5.886;2023-02-25T09:36:19;7.37;;;1.80;;
36799;SDS011;22752;51.960;5.886;2023-02-25T09:38:46;6.43;;;1.03;;
36799;SDS011;22752;51.960;5.886;2023-02-25T09:46:31;4.20;;;1.20;;
36799;SDS011;22752;51.960;5.886;2023-02-25T09:49:05;3.40;;;1.00;;
36799;SDS011;22752;51.960;5.886;2023-02-25T09:51:37;10.77;;;1.83;;
36799;SDS011;22752;51.960;5.886;2023-02-25T09:54:19;6.17;;;1.33;;
36799;SDS011;22752;51.960;5.886;2023-02-25T09:56:48;4.43;;;1.10;;
36799;SDS011;22752;51.960;5.886;2023-02-25T09:59:15;3.90;;;0.97;;
36799;SDS011;22752;51.960;5.886;2023-02-25T10:01:50;7.90;;;1.23;;
36799;SDS011;22752;51.960;5.886;2023-02-25T10:24:39;10.87;;;1.87;;
36799;SDS011;22752;51.960;5.886;2023-02-25T10:27:19;7.23;;;1.43;;
36799;SDS011;22752;51.960;5.886;2023-02-25T10:29:52;12.27;;;2.60;;
36799;SDS011;22752;51.960;5.886;2023-02-25T10:32:29;8.60;;;1.30;;
36799;SDS011;22752;51.960;5.886;2023-02-25T10:34:58;14.80;;;1.70;;
36799;SDS011;22752;51.960;5.886;2023-02-25T10:37:32;9.20;;;1.57;;
36799;SDS011;22752;51.960;5.886;2023-02-25T10:40:00;10.73;;;1.80;;
36799;SDS011;22752;51.960;5.886;2023-02-25T10:42:29;7.33;;;2.10;;
36799;SDS011;22752;51.960;5.886;2023-02-25T10:44:58;12.13;;;2.00;;
36799;SDS011;22752;51.960;5.886;2023-02-25T10:47:32;6.43;;;1.43;;
36799;SDS011;22752;51.960;5.886;2023-02-25T10:53:12;7.13;;;1.23;;
36799;SDS011;22752;51.960;5.886;2023-02-25T10:55:50;11.10;;;1.63;;
36799;SDS011;22752;51.960;5.886;2023-02-25T11:01:12;7.43;;;1.50;;
36799;SDS011;22752;51.960;5.886;2023-02-25T11:06:43;11.00;;;1.83;;
36799;SDS011;22752;51.960;5.886;2023-02-25T11:14:27;5.20;;;1.07;;
36799;SDS011;22752;51.960;5.886;2023-02-25T11:17:11;7.93;;;1.83;;
36799;SDS011;22752;51.960;5.886;2023-02-25T11:19:43;10.38;;;1.40;;
36799;SDS011;22752;51.960;5.886;2023-02-25T11:22:19;5.77;;;1.53;;
36799;SDS011;22752;51.960;5.886;2023-02-25T11:24:53;11.23;;;1.20;;
36799;SDS011;22752;51.960;5.886;2023-02-25T11:27:34;6.23;;;1.50;;
36799;SDS011;22752;51.960;5.886;2023-02-25T11:30:06;10.07;;;1.60;;
36799;SDS011;22752;51.960;5.886;2023-02-25T11:32:45;6.80;;;1.80;;
36799;SDS011;22752;51.960;5.886;2023-02-25T11:35:26;9.20;;;1.97;;
36799;SDS011;22752;51.960;5.886;2023-02-25T11:37:55;11.03;;;1.40;;
36799;SDS011;22752;51.960;5.886;2023-02-25T11:40:26;11.80;;;2.17;;
36799;SDS011;22752;51.960;5.886;2023-02-25T11:43:12;11.47;;;2.23;;
36799;SDS011;22752;51.960;5.886;2023-02-25T11:45:52;15.55;;;2.10;;
36799;SDS011;22752;51.960;5.886;2023-02-25T11:48:27;12.53;;;1.73;;
36799;SDS011;22752;51.960;5.886;2023-02-25T11:56:39;8.07;;;1.70;;
36799;SDS011;22752;51.960;5.886;2023-02-25T12:13:36;9.57;;;1.63;;
36799;SDS011;22752;51.960;5.886;2023-02-25T12:35:39;8.00;;;1.93;;
36799;SDS011;22752;51.960;5.886;2023-02-25T12:44:34;11.60;;;2.10;;
36799;SDS011;22752;51.960;5.886;2023-02-25T12:49:59;10.27;;;1.90;;
36799;SDS011;22752;51.960;5.886;2023-02-25T13:06:54;7.77;;;1.73;;
36799;SDS011;22752;51.960;5.886;2023-02-25T13:12:12;8.50;;;1.63;;
36799;SDS011;22752;51.960;5.886;2023-02-25T13:19:59;8.43;;;1.57;;
36799;SDS011;22752;51.960;5.886;2023-02-25T13:25:52;14.97;;;2.10;;
36799;SDS011;22752;51.960;5.886;2023-02-25T13:28:43;13.40;;;1.77;;
36799;SDS011;22752;51.960;5.886;2023-02-25T13:34:17;7.50;;;1.93;;
36799;SDS011;22752;51.960;5.886;2023-02-25T13:37:16;8.13;;;1.45;;
36799;SDS011;22752;51.960;5.886;2023-02-25T13:42:57;7.67;;;1.80;;
36799;SDS011;22752;51.960;5.886;2023-02-25T13:53:58;7.60;;;1.52;;
36799;SDS011;22752;51.960;5.886;2023-02-25T13:56:51;8.13;;;1.67;;
36799;SDS011;22752;51.960;5.886;2023-02-25T14:22:50;6.73;;;1.73;;
36799;SDS011;22752;51.960;5.886;2023-02-25T14:31:09;5.33;;;1.30;;
36799;SDS011;22752;51.960;5.886;2023-02-25T14:33:41;9.57;;;1.50;;
36799;SDS011;22752;51.960;5.886;2023-02-25T14:47:25;3.97;;;0.93;;
36799;SDS011;22752;51.960;5.886;2023-02-25T14:55:27;7.95;;;1.65;;
36799;SDS011;22752;51.960;5.886;2023-02-25T15:03:56;5.50;;;1.23;;
36799;SDS011;22752;51.960;5.886;2023-02-25T15:11:41;5.67;;;1.10;;
36799;SDS011;22752;51.960;5.886;2023-02-25T15:14:20;3.83;;;1.23;;
36799;SDS011;22752;51.960;5.886;2023-02-25T15:22:22;4.00;;;1.00;;
36799;SDS011;22752;51.960;5.886;2023-02-25T15:24:48;7.77;;;1.37;;
36799;SDS011;22752;51.960;5.886;2023-02-25T15:30:01;4.33;;;1.17;;
36799;SDS011;22752;51.960;5.886;2023-02-25T15:53:07;8.07;;;1.83;;
36799;SDS011;22752;51.960;5.886;2023-02-25T15:55:40;4.67;;;1.30;;
36799;SDS011;22752;51.960;5.886;2023-02-25T16:00:52;7.23;;;1.30;;
36799;SDS011;22752;51.960;5.886;2023-02-25T16:05:49;4.10;;;1.47;;
36799;SDS011;22752;51.960;5.886;2023-02-25T16:08:17;6.93;;;1.60;;
36799;SDS011;22752;51.960;5.886;2023-02-25T16:10:49;3.92;;;1.10;;
36799;SDS011;22752;51.960;5.886;2023-02-25T16:13:39;9.73;;;1.70;;
36799;SDS011;22752;51.960;5.886;2023-02-25T16:16:07;4.60;;;1.23;;
36799;SDS011;22752;51.960;5.886;2023-02-25T16:21:51;6.80;;;1.20;;
36799;SDS011;22752;51.960;5.886;2023-02-25T16:24:00;8.73;;;1.33;;
36799;SDS011;22752;51.960;5.886;2023-02-25T16:31:59;6.60;;;1.33;;
36799;SDS011;22752;51.960;5.886;2023-02-25T16:40:01;9.83;;;1.67;;
36799;SDS011;22752;51.960;5.886;2023-02-25T16:42:30;6.40;;;1.60;;
36799;SDS011;22752;51.960;5.886;2023-02-25T16:44:58;9.13;;;1.70;;
36799;SDS011;22752;51.960;5.886;2023-02-25T16:47:35;10.33;;;1.77;;
36799;SDS011;22752;51.960;5.886;2023-02-25T16:50:03;9.10;;;1.93;;
36799;SDS011;22752;51.960;5.886;2023-02-25T16:52:38;6.67;;;1.50;;
36799;SDS011;22752;51.960;5.886;2023-02-25T16:55:12;10.30;;;1.80;;
36799;SDS011;22752;51.960;5.886;2023-02-25T16:57:58;7.87;;;1.93;;
36799;SDS011;22752;51.960;5.886;2023-02-25T17:01:02;8.73;;;1.77;;
36799;SDS011;22752;51.960;5.886;2023-02-25T17:03:30;8.33;;;1.63;;
36799;SDS011;22752;51.960;5.886;2023-02-25T17:06:18;9.70;;;1.60;;
36799;SDS011;22752;51.960;5.886;2023-02-25T17:08:45;12.57;;;2.27;;
36799;SDS011;22752;51.960;5.886;2023-02-25T17:11:17;7.47;;;1.80;;
36799;SDS011;22752;51.960;5.886;2023-02-25T17:13:46;5.53;;;1.10;;
36799;SDS011;22752;51.960;5.886;2023-02-25T17:16:21;8.80;;;1.60;;
36799;SDS011;22752;51.960;5.886;2023-02-25T17:19:00;7.93;;;1.70;;
36799;SDS011;22752;51.960;5.886;2023-02-25T17:21:36;9.10;;;1.60;;
36799;SDS011;22752;51.960;5.886;2023-02-25T17:24:04;6.03;;;1.30;;
36799;SDS011;22752;51.960;5.886;2023-02-25T17:26:35;8.40;;;1.60;;
36799;SDS011;22752;51.960;5.886;2023-02-25T17:29:09;9.47;;;1.67;;
36799;SDS011;22752;51.960;5.886;2023-02-25T17:31:58;7.27;;;1.17;;
36799;SDS011;22752;51.960;5.886;2023-02-25T17:34:29;5.37;;;1.10;;
36799;SDS011;22752;51.960;5.886;2023-02-25T17:36:59;5.63;;;1.60;;
36799;SDS011;22752;51.960;5.886;2023-02-25T17:39:30;10.53;;;1.67;;
36799;SDS011;22752;51.960;5.886;2023-02-25T17:41:56;6.80;;;1.50;;
36799;SDS011;22752;51.960;5.886;2023-02-25T17:47:03;10.37;;;2.03;;
36799;SDS011;22752;51.960;5.886;2023-02-25T17:49:32;5.73;;;1.60;;
36799;SDS011;22752;51.960;5.886;2023-02-25T17:52:00;9.77;;;1.80;;
36799;SDS011;22752;51.960;5.886;2023-02-25T17:54:44;5.70;;;1.40;;
36799;SDS011;22752;51.960;5.886;2023-02-25T17:57:14;7.50;;;1.47;;
36799;SDS011;22752;51.960;5.886;2023-02-25T17:59:47;9.13;;;1.90;;
36799;SDS011;22752;51.960;5.886;2023-02-25T18:04:46;6.47;;;1.60;;
36799;SDS011;22752;51.960;5.886;2023-02-25T18:07:21;8.37;;;1.73;;
36799;SDS011;22752;51.960;5.886;2023-02-25T18:09:56;7.77;;;2.37;;
36799;SDS011;22752;51.960;5.886;2023-02-25T18:12:24;6.90;;;1.80;;
36799;SDS011;22752;51.960;5.886;2023-02-25T18:14:53;5.60;;;1.20;;
36799;SDS011;22752;51.960;5.886;2023-02-25T18:17:28;4.60;;;1.50;;
36799;SDS011;22752;51.960;5.886;2023-02-25T18:19:58;7.43;;;2.00;;
36799;SDS011;22752;51.960;5.886;2023-02-25T18:22:38;8.70;;;1.50;;
36799;SDS011;22752;51.960;5.886;2023-02-25T18:28:12;6.80;;;1.60;;
36799;SDS011;22752;51.960;5.886;2023-02-25T18:30:39;9.40;;;1.57;;
36799;SDS011;22752;51.960;5.886;2023-02-25T18:33:07;9.87;;;1.63;;
36799;SDS011;22752;51.960;5.886;2023-02-25T18:35:35;10.63;;;1.67;;
36799;SDS011;22752;51.960;5.886;2023-02-25T18:38:03;4.63;;;1.40;;
36799;SDS011;22752;51.960;5.886;2023-02-25T18:42:57;9.33;;;1.70;;
36799;SDS011;22752;51.960;5.886;2023-02-25T18:45:24;7.50;;;1.83;;
36799;SDS011;22752;51.960;5.886;2023-02-25T18:47:51;8.27;;;1.40;;
36799;SDS011;22752;51.960;5.886;2023-02-25T18:50:18;4.13;;;1.30;;
36799;SDS011;22752;51.960;5.886;2023-02-25T18:52:45;4.87;;;1.37;;
36799;SDS011;22752;51.960;5.886;2023-02-25T18:55:14;3.90;;;1.20;;
36799;SDS011;22752;51.960;5.886;2023-02-25T18:57:45;7.03;;;1.37;;
36799;SDS011;22752;51.960;5.886;2023-02-25T19:00:12;4.43;;;1.60;;
36799;SDS011;22752;51.960;5.886;2023-02-25T19:02:43;6.57;;;1.47;;
36799;SDS011;22752;51.960;5.886;2023-02-25T19:05:15;4.07;;;1.40;;
36799;SDS011;22752;51.960;5.886;2023-02-25T19:07:42;5.23;;;1.90;;
36799;SDS011;22752;51.960;5.886;2023-02-25T19:10:10;5.67;;;1.50;;
36799;SDS011;22752;51.960;5.886;2023-02-25T19:12:39;7.30;;;2.03;;
36799;SDS011;22752;51.960;5.886;2023-02-25T19:15:06;9.63;;;2.17;;
36799;SDS011;22752;51.960;5.886;2023-02-25T19:17:36;11.27;;;2.30;;
36799;SDS011;22752;51.960;5.886;2023-02-25T19:20:02;9.33;;;2.27;;
36799;SDS011;22752;51.960;5.886;2023-02-25T19:22:28;10.60;;;2.70;;
36799;SDS011;22752;51.960;5.886;2023-02-25T19:24:54;7.10;;;1.97;;
36799;SDS011;22752;51.960;5.886;2023-02-25T19:27:24;7.73;;;2.17;;
36799;SDS011;22752;51.960;5.886;2023-02-25T19:29:52;7.67;;;1.90;;